Nearby METAR Reports

 

KSJC - San Jose, California, USA
Distance from station: NE 14km
Updated: 17/02/2020 03:53
Overcast
Overcast
 Wind from W
Wind: W 6 km/h
Temperature: 10°C
Dew Point: 8°C
Humidity: 88%
Barometer: 1020 hPa
Clouds: Overcast
Visibility: 16 km
Cloud details: Overcast 244 m
2020/02/17 11:53 KSJC 171153Z AUTO 26003KT 10SM OVC008 10/08 A3012 RMK AO2 SLP198 T01000078 10117 20100 58010 $
KNUQ - Moffett Nas/Mtn, California, USA
Distance from station: N 14km
Updated: 21/11/2019 08:56
NOT Current

 
Barometer: 1011.2 hPa
2019/11/21 16:56 KNUQ 211656Z AUTO A2986 RMK AO2 SLP116 PWINO $
 
KPAO - Palo Alto, California, USA
Distance from station: NNW 23km
Updated: 16/02/2020 20:47
NOT Current
Partly cloudy
Partly cloudy
 Wind from calm
Wind: Calm
Temperature: 11°C
Dew Point: 8°C
Humidity: 82%
Barometer: 1022 hPa
Clouds: Partly cloudy
Visibility: 16 km
Cloud details: Partly cloudy 3658 m
2020/02/17 04:47 KPAO 170447Z 00000KT 10SM SCT120 11/08 A3018 RMK LAST
KRHV - San Jose/Reid, California, USA
Distance from station: ENE 19km
Updated: 16/02/2020 21:55
NOT Current
Few Clouds
Few Clouds
 Wind from calm
Wind: Calm
Temperature: 10°C
Dew Point: 8°C
Humidity: 88%
Barometer: 1022 hPa
Clouds: Few Clouds
Visibility: 16 km
Cloud details: Few Clouds 457 m
Few Clouds 1067 m
2020/02/17 05:55 KRHV 170555Z 00000KT 10SM FEW015 FEW035 10/08 A3018 RMK LAST
 
KOAK - Oakland, California, USA
Distance from station: NNW 50km
Updated: 17/02/2020 03:53
Few Clouds
Few Clouds
 Wind from NE
Wind: NE 7 km/h
Temperature: 8°C
Wind Chill: 7°C
Dew Point: 6°C
Humidity: 87%
Barometer: 1020.3 hPa
Clouds: Few Clouds
Visibility: 16 km
Cloud details: Few Clouds 305 m
Few Clouds 6096 m
2020/02/17 11:53 KOAK 171153Z 05004KT 10SM FEW010 FEW200 08/06 A3013 RMK AO2 SLP201 T00780061 10122 20078 58010 $
KSQL - San Carlos Airpo, California, USA
Distance from station: NW 34km
Updated: 17/02/2020 04:40
Clear
Clear
 Wind from calm
Wind: Calm
Temperature: 8°C
Dew Point: 7°C
Humidity: 93%
Barometer: 1020.3 hPa
Clouds: Clear
Visibility: 16 km
2020/02/17 12:40 KSQL 171240Z AUTO 00000KT 10SM CLR 08/07 A3013 RMK AO2
 
KSFO - San Francisco, California, USA
Distance from station: NW 49km
Updated: 17/02/2020 03:56
Clear
Clear
 Wind from calm
Wind: Calm
Temperature: 8°C
Dew Point: 6°C
Humidity: 87%
Barometer: 1020 hPa
Clouds: Clear
Visibility: 16 km
2020/02/17 11:56 KSFO 171156Z 00000KT 10SM CLR 08/06 A3012 RMK AO2 SLP197 T00830061 10117 20083 58012
KE16 - San Martin, California, USA
Distance from station: ESE 43km
Updated: 14/11/2019 01:35
NOT Current
Overcast
Overcast
 Wind from SE
Wind: SE 11 km/h
Temperature: 12°C
Dew Point: 10°C
Humidity: 88%
Barometer: 1017.6 hPa
Clouds: Overcast
Visibility: 16 km
Cloud details: Overcast 427 m
2019/11/14 09:35 KE16 140935Z AUTO 13006KT 10SM OVC014 12/10 A3005 RMK AO2
 
KWVI - Watsonville, California, USA
Distance from station: SSE 44km
Updated: 17/02/2020 03:53
Clear
Clear
 Wind from NNW
Wind: NNW 6 km/h
Temperature: 7°C
Dew Point: 6°C
Humidity: 93%
Barometer: 1019.6 hPa
Clouds: Clear
Visibility: 16 km
2020/02/17 11:53 KWVI 171153Z AUTO 33003KT 10SM CLR 07/06 A3011 RMK AO2 SLP196 T00670056 10100 20067 57010
KHAF - Half Moon Bay, California, USA
Distance from station: WNW 50km
Updated: 17/02/2020 04:35
Fog, Overcast
Fog, Overcast
 Wind from calm
Wind: Calm
Temperature: 9°C
Dew Point: 8°C
Humidity: 94%
Barometer: 1020 hPa
Summary: Fog
Clouds: Overcast
Visibility: 0.8 km
Cloud details: Overcast 61 m
2020/02/17 12:35 KHAF 171235Z AUTO 00000KT 1/2SM FG OVC002 09/08 A3012 RMK AO2
 
KHWD - Hayward, California, USA
Distance from station: N 44km
Updated: 17/02/2020 03:54
Clear
Clear
 Wind from ENE
Wind: ENE 7 km/h
Temperature: 8°C
Wind Chill: 7°C
Dew Point: 6°C
Humidity: 87%
Barometer: 1020 hPa
Clouds: Clear
Visibility: 16 km
2020/02/17 11:54 KHWD 171154Z AUTO 07004KT 10SM CLR 08/06 A3012 RMK AO2 SLP209 T00830061 10117 20078 58009
KLVK - Livermore, California, USA
Distance from station: NNE 51km
Updated: 17/02/2020 03:53
Fog, Overcast
Fog, Overcast
 Wind from calm
Wind: Calm
Temperature: 7°C
Dew Point: 7°C
Humidity: 100%
Barometer: 1020 hPa
Summary: Fog
Clouds: Overcast
Visibility: 0.4 km
Cloud details: Overcast 61 m
2020/02/17 11:53 KLVK 171153Z AUTO 00000KT 1/4SM FG VV002 07/07 A3012 RMK AO2 SLP198 T00720072 10100 20067 56007